Accueil
METAR-TAF:

METAR-TAF

Aéroports :

North Myrtle Beach, Caroline du Sud, États-Unis

latitude: 33-48-42N, longitude: 078-43-26W, altitude: 10 m

Observation

Le bulletin a été fait il y a 40 minutes, à 20:53 UTC
Vent 7 kt de nord
Température 17°C
Humidité 39%
Pression 1019 hPa
Visibilité: 16.1 km
Ciel clair

METAR: KCRE 202053Z 35007KT 10SM CLR 17/03 A3010 RMK AO1 SLP195 T01720033 53003

Heure: 16:33 (21:33 UTC)

Prévision

Le bulletin a été fait il y a 4 heures et 13 minutes, à 17:20 UTC
Prévision valable du 20 à 18 UTC au 21 à 18 UTC
Vent 6 kt de nord/nord-ouest
Visibilité: 10 km
Quelques nuages à une hauteur de 12000 ft

TAF: KCRE 201720Z 2018/2118 34006KT P6SM FEW120

Observations et prévisions météorologiques de plus de 4000 aéroports (messages METAR et TAF).

Les stations disponibles sont représentées par des disques jaunes et rouges sur la carte.

Passer la souris dessus pour voir le nom de la station.

Cliquer dessus pour voir les observations et prévisions météorologiques.

Pour changer de carte: cliquez sur les boutons verts avec une croix noire pour zoomer, sur le bouton vert avec un tiret pour effectuer un zoom arrière, ou sur les flèches vertes pour les cartes adjacentes.


METAR-TAF: